• Join FlightAware (Why Join?)
  • Login
  • US Flag 
01:09PM EST


 

Airport Tracker/Info


-or-


 

Live Flight TrackerFlight Track Log ✈ QFA1031 ✈ 06-Oct-2013 ✈ YBRM / BME - YBBN / BNE

Flight Track Log - Related Links

Times and Time Zones

All times are in EDT time to prevent confusion due to time zone crossing. See the QFA1031 flight status page for this flight to view local times or setup timezone preferences in your user account.

Time Position Orientation Groundspeed Altitude Reporting Facility
EDT Latitude Longitude Course Direction KTS MPH feet Rate Location/Type
12:29AM -17.9496 122.2277 120° Southeast 35,000  Level Aus ATC (Calculated)
12:30AM -17.9946 122.3094 120° Southeast 35,000  Level Aus ATC (Calculated)
12:32AM -18.1004 122.5019 120° Southeast  Level FlightAware Approximate
12:32AM -18.0816 122.4676 120° Southeast 35,000  Level Aus ATC (Calculated)
12:33AM -18.1658 122.6211 120° Southeast  Level FlightAware Approximate
12:33AM -18.1631 122.6161 120° Southeast 35,000  Level Aus ATC (Calculated)
12:35AM -18.2693 122.8102 120° Southeast  Level FlightAware Approximate
12:35AM -18.2751 122.8208 120° Southeast 35,000  Level Aus ATC (Calculated)
12:37AM -18.3859 123.0239 120° Southeast  Level FlightAware Approximate
12:38AM -18.4509 123.1435 120° Southeast  Level FlightAware Approximate
12:38AM -18.4478 123.1378 120° Southeast 35,000  Level Aus ATC (Calculated)
12:40AM -18.5593 123.3433 120° Southeast  Level FlightAware Approximate
12:40AM -18.5641 123.3521 119° Southeast 35,000  Level Aus ATC (Calculated)
12:41AM -18.5895 123.3990 119° Southeast 35,000  Level Aus ATC (Calculated)
12:43AM -18.7018 123.6069 120° Southeast  Level FlightAware Approximate
12:44AM -18.7665 123.7270 120° Southeast  Level FlightAware Approximate
12:44AM -18.7370 123.6720 119° Southeast 35,000  Level Aus ATC (Calculated)
12:45AM -18.7768 123.7460 119° Southeast 35,000  Level Aus ATC (Calculated)
12:47AM -18.8877 123.9524 120° Southeast  Level FlightAware Approximate
12:48AM -18.9522 124.0727 120° Southeast  Level FlightAware Approximate
12:48AM -18.9633 124.0935 119° Southeast 35,000  Level Aus ATC (Calculated)
12:49AM -19.0400 124.2370 119° Southeast 35,000  Level Aus ATC (Calculated)
12:51AM -19.1321 124.4098 119° Southeast  Level FlightAware Approximate
12:52AM -19.1963 124.5305 119° Southeast  Level FlightAware Approximate
12:52AM -19.2059 124.5484 119° Southeast 35,000  Level Aus ATC (Calculated)
12:54AM -19.3030 124.7316 119° Southeast  Level FlightAware Approximate
12:55AM -19.3670 124.8526 119° Southeast  Level FlightAware Approximate
12:56AM -19.4309 124.9735 119° Southeast  Level FlightAware Approximate
12:56AM -19.4608 125.0291 119° Southeast 35,000  Level Aus ATC (Calculated)
12:58AM -19.3527 124.8257 299° West  Level FlightAware Approximate
12:59AM -19.4035 124.9555 119° Southeast  Level Estimated
12:59AM -19.6395 125.3668 119° Southeast 35,000  Level Aus ATC (Calculated)
01:01AM -19.7524 125.5810 119° Southeast  Level FlightAware Approximate
01:01AM -19.7732 125.6206 119° Southeast 35,000  Level Aus ATC (Calculated)
01:03AM -19.8815 125.8271 119° Southeast  Level FlightAware Approximate
01:04AM -19.9450 125.9487 119° Southeast  Level FlightAware Approximate
01:05AM -20.0085 126.0704 119° Southeast  Level FlightAware Approximate
01:06AM -20.0720 126.1921 119° Southeast  Level FlightAware Approximate
01:06AM -20.1164 126.2776 118° Southeast 35,000  Level Aus ATC (Calculated)
01:07AM -20.2146 126.4671 118° Southeast 35,000  Level Aus ATC (Calculated)
01:08AM -20.0087 126.0705 299° West  Level FlightAware Approximate
01:09AM -20.1485 126.3395 299° West  Level FlightAware Approximate
01:10AM -20.0855 126.2181 299° West  Level FlightAware Approximate
01:11AM -20.1373 126.3180 119° Southeast  Level FlightAware Approximate
01:11AM -20.4104 126.8468 118° Southeast 35,000  Level Aus ATC (Calculated)
01:11AM -20.4104 126.8468 118° Southeast 35,000  Level Aus ATC (Calculated)
01:12AM -20.5079 127.0371 118° Southeast 35,000  Level Aus ATC (Calculated)
01:13AM -20.5063 127.0338 119° Southeast  Level FlightAware Approximate
01:14AM -20.5787 127.1754 119° Southeast  Level FlightAware Approximate
01:15AM -20.6410 127.2976 119° Southeast  Level FlightAware Approximate
01:16AM -20.7033 127.4198 119° Southeast  Level FlightAware Approximate
01:17AM -20.7655 127.5422 119° Southeast  Level FlightAware Approximate
01:17AM -20.7994 127.6092 118° Southeast 35,000  Level Aus ATC (Calculated)
01:18AM -20.8275 127.6647 118° Southeast  Level FlightAware Approximate
01:19AM -20.8708 127.7501 118° Southeast  Level FlightAware Approximate
01:20AM -20.9327 127.8727 118° Southeast  Level FlightAware Approximate
01:21AM -20.9945 127.9955 118° Southeast  Level FlightAware Approximate
01:22AM -21.0563 128.1183 118° Southeast  Level FlightAware Approximate
01:22AM -21.1210 128.2474 117° Southeast 35,000  Level Aus ATC (Calculated)
01:23AM -21.1180 128.2413 118° Southeast  Level FlightAware Approximate
01:24AM -21.1919 128.3889 118° Southeast  Level FlightAware Approximate
01:25AM -21.2533 128.5121 118° Southeast  Level FlightAware Approximate
01:25AM -21.2809 128.5675 117° Southeast 35,000  Level Aus ATC (Calculated)
01:26AM -21.3447 128.6958 117° Southeast 35,000 60 Level Aus ATC (Calculated)
01:27AM -21.3658 128.7381 118° Southeast  Level FlightAware Approximate
01:27AM -21.4084 128.8241 117° Southeast 35,000  Level Aus ATC (Calculated)
01:28AM -21.4244 128.8562 118° Southeast  Level FlightAware Approximate
01:29AM -21.4788 128.9662 118° Southeast  Level FlightAware Approximate
01:30AM -21.5398 129.0898 118° Southeast  Level FlightAware Approximate
01:31AM -21.6008 129.2136 118° Southeast  Level FlightAware Approximate
01:32AM -21.6616 129.3375 118° Southeast  Level FlightAware Approximate
01:32AM -21.7254 129.4676 116° Southeast 35,000  Level Aus ATC (Calculated)
01:33AM -21.7224 129.4615 118° Southeast  Level FlightAware Approximate
01:34AM -21.7962 129.6123 118° Southeast  Level FlightAware Approximate
01:35AM -21.8568 129.7365 118° Southeast  Level FlightAware Approximate
01:36AM -21.9173 129.8608 118° Southeast  Level FlightAware Approximate
01:37AM -21.9777 129.9852 118° Southeast  Level FlightAware Approximate
01:37AM -22.0086 130.0491 115° Southeast 35,000  Level Aus ATC (Calculated)
01:38AM -22.0380 130.1098 118° Southeast  Level FlightAware Approximate
01:38AM -22.0712 130.1786 114° Southeast 35,000  Level Aus ATC (Calculated)
01:39AM -22.0788 130.1944 118° Southeast  Level FlightAware Approximate
01:40AM -22.1334 130.3074 118° Southeast  Level FlightAware Approximate
01:40AM -22.1868 130.4185 113° Southeast 35,000  Level Aus ATC (Calculated)
01:41AM -22.1934 130.4322 117° Southeast  Level FlightAware Approximate
01:42AM -22.1217 130.2833 297° West  Level FlightAware Approximate
01:42AM -22.2662 130.5840 111° Southeast 35,000  Level Aus ATC (Calculated)
01:43AM -22.3718 130.8051 108° East 35,000 180 Level Aus ATC (Calculated)
01:44AM -22.1723 130.3883 117° Southeast  Level FlightAware Approximate
01:45AM -22.4350 130.9377 117° Southeast  Level FlightAware Approximate
01:46AM -22.4951 131.0641 117° Southeast  Level FlightAware Approximate
01:46AM -22.5560 131.1926 352° North 35,000  Level Aus ATC (Calculated)
01:47AM -22.5550 131.1907 117° Southeast  Level FlightAware Approximate
01:48AM -22.6173 131.3224 117° Southeast  Level FlightAware Approximate
01:48AM -22.4820 131.1810 117° Southeast 470 541 36,500  Level FlightAware
01:48AM -22.6608 131.4146 316° Northwest 35,000  Descending Aus ATC (Calculated)
01:49AM -22.6765 131.4481 117° Southeast  Level FlightAware Approximate
01:49AM -22.5080 131.2530 111° Southeast 471 542 36,500  Level FlightAware
01:49AM -22.5360 131.3310 111° Southeast 471 542 36,500  Level FlightAware
01:50AM -22.5640 131.4100 111° Southeast 470 541 36,500  Level FlightAware
01:50AM -22.7913 131.6925 316° Northwest 35,000  Descending Aus ATC (Calculated)
01:51AM -22.5900 131.4830 111° Southeast 471 542 36,500 2,040 Climbing FlightAware
01:51AM -22.6180 131.5610 111° Southeast 471 542 36,500  Level FlightAware
01:51AM -22.8434 131.8038 323° Northwest 35,000  Descending Aus ATC (Calculated)
01:52AM -22.6480 131.6430 111° Southeast 470 541 36,500 1,620 Climbing FlightAware
01:52AM -22.6730 131.7140 111° Southeast 471 542 36,500  Level FlightAware
01:53AM -22.7010 131.7930 111° Southeast 470 541 36,500  Level FlightAware
01:53AM -22.9733 132.0824 322° Northwest 35,000  Descending Aus ATC (Calculated)
01:54AM -22.7300 131.8760 111° Southeast 470 541 36,500 1,920 Climbing FlightAware
01:54AM -22.7550 131.9460 111° Southeast 469 540 36,500  Level FlightAware
01:54AM -23.0251 132.1940 327° Northwest 35,000  Descending Aus ATC (Calculated)
01:55AM -22.7830 132.0250 111° Southeast 468 539 36,500 1,320 Climbing FlightAware
01:55AM -22.8110 132.1030 111° Southeast 469 540 36,500  Level FlightAware
01:56AM -22.8390 132.1820 111° Southeast 469 540 36,500  Level FlightAware
01:56AM -23.1543 132.4734 325° Northwest 35,000  Descending Aus ATC (Calculated)
01:56AM -22.8630 132.2520 110° East 468 539 36,500 2,460 Climbing FlightAware
01:57AM -22.8910 132.3320 110° East 468 539 36,500  Level FlightAware
01:58AM -22.9190 132.4120 111° Southeast 470 541 36,500 60 Level FlightAware
01:58AM -22.9440 132.4820 111° Southeast 472 543 36,600 120 Climbing FlightAware
01:58AM -23.2573 132.6972 337° Northwest 35,000 120 Descending Aus ATC (Calculated)
01:59AM -22.9720 132.5640 111° Southeast 473 544 36,700 1,560 Climbing FlightAware
01:59AM -23.0010 132.6470 111° Southeast 473 544 36,800 120 Climbing FlightAware
02:00AM -23.0250 132.7150 111° Southeast 473 544 36,900 60 Climbing FlightAware
02:01AM -23.0540 132.7980 111° Southeast 472 543 36,900 60 Level FlightAware
02:01AM -23.4112 133.0337 336° Northwest 35,000 120 Descending Aus ATC (Calculated)
02:01AM -23.0800 132.8730 111° Southeast 471 542 37,000 2,880 Climbing FlightAware
02:01AM -23.4368 133.0898 338° Northwest 35,000  Descending Aus ATC (Calculated)
02:02AM -23.1060 132.9480 111° Southeast 472 543 37,000 2,220 Climbing FlightAware
02:02AM -23.1350 133.0320 111° Southeast 474 545 37,000  Level FlightAware
02:03AM -23.1600 133.1070 110° East 474 545 37,000  Level FlightAware
02:03AM -23.5389 133.3147 342° North 35,000  Descending Aus ATC (Calculated)
02:04AM -23.1890 133.1910 111° Southeast 474 545 37,000 2,700 Climbing FlightAware
02:04AM -23.2130 133.2600 111° Southeast 475 547 37,000  Level FlightAware
02:05AM -23.2410 133.3420 111° Southeast 476 548 37,000  Level FlightAware
02:05AM -23.6660 133.5962 338° Northwest 35,000  Descending Aus ATC (Calculated)
02:05AM -23.2680 133.4190 111° Southeast 477 549 37,000 3,300 Climbing FlightAware
02:06AM -23.2950 133.5000 111° Southeast 476 548 37,000  Level FlightAware
02:06AM -23.3190 133.5700 110° East 476 548 37,000  Level FlightAware
02:06AM -23.7421 133.7653 345° North 35,000  Descending Aus ATC (Calculated)
02:07AM -23.3450 133.6460 110° East 476 548 37,000 1,740 Climbing FlightAware
02:08AM -23.3750 133.7360 110° East 476 548 37,000  Level FlightAware
02:08AM -23.4010 133.8110 111° Southeast 476 548 37,000  Level FlightAware
02:08AM -23.8142 133.9679 350° North 37,000  Level Aus ATC (Calculated)
02:09AM -23.4290 133.8930 110° East 476 548 37,000  Level FlightAware
02:09AM -23.4550 133.9700 110° East 475 547 37,000  Level FlightAware
02:10AM -23.4810 134.0490 110° East 476 548 37,000  Level FlightAware
02:10AM -23.5090 134.1300 111° Southeast 477 549 37,000  Level FlightAware
02:11AM -23.5330 134.2020 110° East 478 550 37,000  Level FlightAware
02:12AM -23.5600 134.2820 110° East 479 551 37,000  Level FlightAware
02:12AM -23.5870 134.3620 110° East 479 551 37,000  Level FlightAware
02:13AM -23.6130 134.4410 110° East 480 552 37,000  Level FlightAware
02:13AM -23.9843 134.6863 337° Northwest 37,000  Level Aus ATC (Calculated)
02:13AM -23.6400 134.5230 110° East 480 552 37,000  Level FlightAware
02:14AM -23.6640 134.5950 110° East 480 552 37,000  Level FlightAware
02:15AM -23.6920 134.6800 110° East 480 552 37,000  Level FlightAware
02:15AM -23.7190 134.7600 110° East 480 552 37,000  Level FlightAware
02:16AM -23.7430 134.8330 110° East 481 554 37,000  Level FlightAware
02:16AM -23.7710 134.9170 110° East 480 552 37,000  Level FlightAware
02:17AM -23.7980 134.9980 110° East 480 552 37,000  Level FlightAware
02:17AM -23.8230 135.0750 110° East 480 552 37,000  Level FlightAware
02:18AM -23.8570 135.1790 110° East 480 552 37,000  Level FlightAware
02:18AM -24.1510 135.4066 333° Northwest 37,000  Level Aus ATC (Calculated)
02:19AM -23.8830 135.2590 110° East 479 551 37,000  Level FlightAware
02:19AM -23.9110 135.3430 110° East 478 550 37,000  Level FlightAware
02:19AM -24.1922 135.5870 328° Northwest 37,000  Level Aus ATC (Calculated)
02:20AM -23.9340 135.4130 110° East 478 550 37,000  Level FlightAware
02:21AM -23.9620 135.4980 110° East 478 550 37,000  Level FlightAware
02:21AM -24.2331 135.7675 324° Northwest 37,000  Level Aus ATC (Calculated)
02:21AM -23.9860 135.5730 110° East 478 550 37,000  Level FlightAware
02:22AM -24.0120 135.6550 109° East 478 550 37,000  Level FlightAware
02:22AM -24.0390 135.7360 110° East 479 551 37,000  Level FlightAware
02:23AM -24.0660 135.8190 110° East 479 551 37,000  Level FlightAware
02:23AM -24.3144 136.1288 316° Northwest 37,000  Level Aus ATC (Calculated)
02:23AM -24.0900 135.8940 109° East 479 551 37,000  Level FlightAware
02:24AM -24.1160 135.9760 109° East 479 551 37,000  Level FlightAware
02:25AM -24.1430 136.0580 110° East 479 551 37,000  Level FlightAware
02:25AM -24.3747 136.4001 311° West 37,000  Level Aus ATC (Calculated)
02:25AM -24.1680 136.1370 109° East 479 551 37,000  Level FlightAware
02:26AM -24.1920 136.2140 109° East 479 551 37,000  Level FlightAware
02:26AM -24.2190 136.2980 109° East 480 552 37,000  Level FlightAware
02:27AM -24.2430 136.3710 110° East 480 552 37,000  Level FlightAware
02:28AM -24.2710 136.4590 109° East 481 554 37,000  Level FlightAware
02:28AM -24.2970 136.5410 109° East 482 555 37,000  Level FlightAware
02:28AM -24.4792 136.8757 304° West 37,000  Level Aus ATC (Calculated)
02:29AM -24.3220 136.6210 109° East 483 556 37,000  Level FlightAware
02:29AM -24.3450 136.6950 109° East 484 557 37,000  Level FlightAware
02:30AM -24.3730 136.7820 109° East 484 557 37,000  Level FlightAware
02:30AM -24.3990 136.8650 109° East 483 556 37,000  Level FlightAware
02:31AM -24.4230 136.9430 109° East 483 556 37,000  Level FlightAware
02:32AM -24.4510 137.0300 109° East 482 555 37,000  Level FlightAware
02:32AM -24.4790 137.1200 109° East 481 554 37,000  Level FlightAware
02:33AM -24.5040 137.2000 109° East 481 554 37,000  Level FlightAware
02:33AM -24.6379 137.6150 290° West 37,000  Level Aus ATC (Calculated)
02:33AM -24.5290 137.2810 109° East 480 552 37,000  Level FlightAware
02:34AM -24.5510 137.3500 109° East 479 551 37,000  Level FlightAware
02:35AM -24.5850 137.4650 108° East 479 551 37,000  Level FlightAware
02:35AM -24.6060 137.5360 108° East 479 551 37,000  Level FlightAware
02:36AM -24.6270 137.6070 108° East 479 551 37,000  Level FlightAware
02:36AM -24.7406 138.1043 283° West 37,000  Level Aus ATC (Calculated)
02:37AM -24.6480 137.6780 108° East 479 551 37,000  Level FlightAware
02:37AM -24.6690 137.7490 108° East 479 551 37,000  Level FlightAware
02:38AM -24.6900 137.8200 108° East 479 551 37,000  Level FlightAware
02:38AM -24.7110 137.8910 108° East 479 551 37,000  Level FlightAware
02:39AM -24.7320 137.9620 108° East 479 551 37,000  Level FlightAware
02:40AM -24.7540 138.0350 108° East 479 551 37,000  Level FlightAware
02:40AM -24.7740 138.1060 107° East 479 551 37,000  Level FlightAware
02:41AM -24.7950 138.1770 108° East 479 551 37,000  Level FlightAware
02:41AM -24.8853 138.8083 278° West 37,000  Level Aus ATC (Calculated)
02:42AM -24.8160 138.2480 108° East 479 551 37,000  Level FlightAware
02:42AM -24.8370 138.3190 108° East 479 551 37,000  Level FlightAware
02:43AM -24.8580 138.3900 108° East 479 551 37,000  Level FlightAware
02:43AM -24.8790 138.4610 108° East 479 551 37,000  Level FlightAware
02:44AM -24.9010 138.5340 108° East 479 551 37,000  Level FlightAware
02:45AM -24.9220 138.6050 108° East 479 551 37,000  Level FlightAware
02:45AM -24.9430 138.6770 108° East 479 551 37,000  Level FlightAware
02:46AM -24.9640 138.7480 108° East 479 551 37,000  Level FlightAware
02:46AM -25.0375 139.5682 274° West 37,000  Level Aus ATC (Calculated)
02:46AM -24.9850 138.8190 108° East 479 551 37,000  Level FlightAware
02:47AM -25.0060 138.8900 108° East 479 551 37,000  Level FlightAware
02:47AM -24.9830 139.2940 86° East 37,000  Level FlightAware
02:48AM -25.0110 139.4340 102° East 37,000  Level FlightAware
02:49AM -25.0320 139.5410 102° East 488 562 37,000  Level FlightAware
02:50AM -25.0470 139.6180 102° East 488 562 37,000  Level FlightAware
02:51AM -25.0750 139.7580 102° East 487 560 37,000  Level FlightAware
02:51AM -25.1858 140.3299 282° West 37,000  Level Aus ATC (Calculated)
02:51AM -25.0920 139.8460 102° East 487 560 37,000  Level FlightAware
02:52AM -25.1100 139.9350 103° East 488 562 37,000  Level FlightAware
02:53AM -25.1250 140.0160 102° East 488 562 37,000  Level FlightAware
02:53AM -25.1500 140.1440 102° East 493 567 37,000  Level FlightAware
02:54AM -25.1670 140.2320 102° East 494 568 37,000  Level FlightAware
02:55AM -25.1890 140.3520 101° East 496 571 37,000  Level FlightAware
02:55AM -25.2100 140.4570 102° East 496 571 37,000  Level FlightAware
02:56AM -25.3302 141.0935 282° West 37,000  Level Aus ATC (Calculated)
02:56AM -25.2340 140.5840 102° East 496 571 37,000  Level FlightAware
02:57AM -25.2490 140.6630 102° East 496 571 37,000  Level FlightAware
02:58AM -25.2750 140.8010 102° East 496 571 37,000  Level FlightAware
02:58AM -25.2910 140.8840 102° East 496 571 37,000  Level FlightAware
02:59AM -25.3050 140.9590 102° East 496 571 37,000  Level FlightAware
03:00AM -25.3290 141.0850 102° East 497 572 37,000  Level FlightAware
03:00AM -25.4437 141.7106 281° West 37,000  Level Aus ATC (Calculated)
03:00AM -25.3430 141.1640 101° East 496 571 37,000  Level FlightAware
03:01AM -25.3630 141.2680 101° East 497 572 37,000  Level FlightAware
03:02AM -25.3820 141.3710 102° East 497 572 37,000  Level FlightAware
03:02AM -25.4030 141.4900 101° East 497 572 37,000  Level FlightAware
03:03AM -25.4170 141.5690 101° East 497 572 37,000  Level FlightAware
03:03AM -25.4340 141.6590 102° East 498 573 37,000  Level FlightAware
03:04AM -25.4590 141.7950 102° East 499 574 37,000  Level FlightAware
03:05AM -25.4720 141.8670 101° East 500 575 37,000  Level FlightAware
03:05AM -25.5748 142.4433 281° West 37,000  Level Aus ATC (Calculated)
03:05AM -25.4900 141.9640 101° East 499 574 37,000  Level FlightAware
03:06AM -25.5090 142.0740 101° East 498 573 37,000  Level FlightAware
03:07AM -25.5220 142.1440 102° East 498 573 37,000  Level FlightAware
03:07AM -25.5380 142.2350 101° East 497 572 37,000  Level FlightAware
03:07AM -25.6341 142.7820 281° West 37,000  Level Aus ATC (Calculated)
03:08AM -25.5520 142.3150 101° East 496 571 37,000  Level FlightAware
03:08AM -25.5690 142.4100 101° East 495 570 37,000  Level FlightAware
03:09AM -25.5840 142.4950 101° East 495 570 37,000  Level FlightAware
03:10AM -25.6020 142.5960 101° East 494 568 37,000  Level FlightAware
03:10AM -25.7022 143.1775 281° West 37,000  Level Aus ATC (Calculated)
03:10AM -25.6160 142.6810 100° East 494 568 37,000  Level FlightAware
03:11AM -25.6240 142.7230 100° East 494 568 37,000  Level FlightAware
03:11AM -25.6470 142.8560 101° East 495 570 37,000  Level FlightAware
03:12AM -25.6610 142.9360 101° East 496 571 37,000  Level FlightAware
03:13AM -25.6760 143.0260 100° East 497 572 37,000  Level FlightAware
03:13AM -25.6920 143.1170 101° East 498 573 37,000  Level FlightAware
03:14AM -25.7070 143.2070 100° East 500 575 37,000  Level FlightAware
03:14AM -25.7210 143.2870 101° East 501 577 37,000  Level FlightAware
03:15AM -25.7360 143.3780 100° East 501 577 37,000  Level FlightAware
03:15AM -25.8260 143.9133 280° West 37,000  Level Aus ATC (Calculated)
03:16AM -25.7520 143.4690 100° East 501 577 37,000  Level FlightAware
03:16AM -25.7670 143.5600 100° East 501 577 37,000  Level FlightAware
03:17AM -25.7810 143.6410 101° East 501 577 37,000  Level FlightAware
03:17AM -25.7960 143.7320 100° East 501 577 37,000  Level FlightAware
03:18AM -25.8080 143.8020 101° East 500 575 37,000  Level FlightAware
03:18AM -25.8230 143.8910 101° East 500 575 37,000  Level FlightAware
03:19AM -25.8380 143.9840 100° East 500 575 37,000  Level FlightAware
03:19AM -25.8510 144.0690 100° East 499 574 37,000  Level FlightAware
03:20AM -25.9551 144.7074 280° West 37,000  Level Aus ATC (Calculated)
03:20AM -25.8660 144.1590 101° East 501 577 37,000  Level FlightAware
03:21AM -25.8800 144.2410 101° East 500 575 37,000  Level FlightAware
03:21AM -25.8950 144.3360 100° East 502 578 37,000  Level FlightAware
03:22AM -25.9100 144.4260 101° East 503 579 37,000  Level FlightAware
03:22AM -25.9250 144.5190 100° East 503 579 37,000  Level FlightAware
03:23AM -25.9370 144.5970 100° East 504 580 37,000  Level FlightAware
03:24AM -25.9530 144.6910 101° East 504 580 37,000  Level FlightAware
03:24AM -26.0523 145.3267 280° West 37,000  Level Aus ATC (Calculated)
03:24AM -25.9670 144.7800 100° East 503 579 37,000  Level FlightAware
03:25AM -25.9820 144.8750 100° East 504 580 37,000  Level FlightAware
03:25AM -25.9950 144.9560 100° East 504 580 37,000  Level FlightAware
03:26AM -26.0090 145.0450 100° East 505 581 37,000  Level FlightAware
03:26AM -26.0230 145.1360 100° East 505 581 37,000  Level FlightAware
03:27AM -26.0360 145.2230 99° East 505 581 37,000  Level FlightAware
03:28AM -26.0510 145.3160 100° East 505 581 37,000  Level FlightAware
03:28AM -26.0650 145.4060 100° East 505 581 37,000  Level FlightAware
03:29AM -26.0780 145.4950 99° East 505 581 37,000  Level FlightAware
03:29AM -26.1758 146.1407 279° West 37,000  Level Aus ATC (Calculated)
03:29AM -26.0910 145.5780 99° East 505 581 37,000  Level FlightAware
03:30AM -26.1040 145.6610 100° East 505 581 37,000  Level FlightAware
03:30AM -26.1944 146.2661 279° West 37,000  Level Aus ATC (Calculated)
03:31AM -26.2128 146.3915 279° West 37,000  Level Aus ATC (Calculated)
03:31AM -26.1200 145.7670 100° East 504 580 37,000  Level FlightAware
03:31AM -26.1320 145.8470 100° East 503 579 37,000  Level FlightAware
03:32AM -26.1460 145.9420 99° East 503 579 37,000  Level FlightAware
03:32AM -26.1600 146.0330 100° East 503 579 37,000  Level FlightAware
03:33AM -26.1720 146.1160 99° East 503 579 37,000  Level FlightAware
03:33AM -26.1860 146.2080 100° East 504 580 37,000  Level FlightAware
03:34AM -26.2857 146.8935 279° West 37,000  Level Aus ATC (Calculated)
03:34AM -26.2000 146.3010 100° East 504 580 37,000  Level FlightAware
03:35AM -26.2120 146.3880 99° East 505 581 37,000  Level FlightAware
03:36AM -26.2310 146.5140 100° East 506 582 37,000  Level FlightAware
03:36AM -26.2420 146.5930 99° East 506 582 37,000  Level FlightAware
03:37AM -26.2530 146.6720 99° East 506 582 37,000  Level FlightAware
03:37AM -26.2640 146.7470 99° East 506 582 37,000  Level FlightAware
03:38AM -26.2750 146.8260 99° East 506 582 37,000  Level FlightAware
03:39AM -26.2860 146.9040 99° East 506 582 37,000  Level FlightAware
03:39AM -26.4002 147.7107 279° West 37,000  Level Aus ATC (Calculated)
03:39AM -26.2970 146.9830 99° East 506 582 37,000  Level FlightAware
03:39AM -26.4089 147.7736 279° West 37,000  Level Aus ATC (Calculated)
03:40AM -26.3080 147.0620 99° East 506 582 37,000  Level FlightAware
03:40AM -26.3200 147.1410 100° East 506 582 37,000  Level FlightAware
03:41AM -26.3310 147.2200 99° East 506 582 37,000  Level FlightAware
03:42AM -26.3420 147.2990 99° East 506 582 37,000  Level FlightAware
03:42AM -26.3740 147.5170 99° East 508 585 37,000 -180 Level FlightAware
03:42AM -26.3776 147.5451 99° East 511 588 36,900  Descending Aus ATC (RADAR)
03:43AM -26.3920 147.6470 99° East 508 585 37,000  Climbing FlightAware
03:43AM -26.3957 147.6741 99° East 505 581 36,900  Descending Aus ATC (RADAR)
03:44AM -26.4040 147.7470 98° East 508 585 37,000 60 Climbing FlightAware
03:44AM -26.4150 147.8290 99° East 508 585 37,000  Level FlightAware
03:45AM -26.4250 147.9090 98° East 508 585 37,000  Level FlightAware
03:45AM -26.4480 148.0616 98° East 503 579 37,000  Level Aus ATC (RADAR)
03:45AM -26.4350 147.9880 98° East 508 585 37,000  Level FlightAware
03:46AM -26.4603 148.1523 98° East 505 581 37,000  Level Aus ATC (RADAR)
03:46AM -26.4450 148.0680 98° East 508 585 37,000  Level FlightAware
03:47AM -26.4550 148.1470 98° East 508 585 37,000  Level FlightAware
03:47AM -26.4843 148.3330 98° East 505 581 37,000  Level Aus ATC (RADAR)
03:47AM -26.4650 148.2270 98° East 508 585 37,000  Level FlightAware
03:48AM -26.4750 148.3090 98° East 508 585 37,000  Level FlightAware
03:48AM -26.4850 148.3880 98° East 508 585 37,000  Level FlightAware
03:49AM -26.4950 148.4680 98° East 508 585 37,000  Level FlightAware
03:50AM -26.5050 148.5500 98° East 508 585 37,000  Level FlightAware
03:50AM -26.5150 148.6250 98° East 508 585 37,000  Level FlightAware
03:51AM -26.5250 148.7040 98° East 508 585 37,000  Level FlightAware
03:51AM -26.5350 148.7840 98° East 508 585 37,000  Level FlightAware
03:52AM -26.5450 148.8640 98° East 508 585 37,000  Level FlightAware
03:53AM -26.5550 148.9430 98° East 508 585 37,000 -60 Level FlightAware
03:54AM -26.6626 149.3690 98° East 489 563 36,900 -180 Descending Aus ATC (RADAR)
03:54AM -26.6696 149.4046 102° East 477 549 36,800 -1,440 Descending Aus ATC (RADAR)
03:55AM -26.6865 149.4858 103° East 458 527 35,700 -1,740 Descending Aus ATC (RADAR)
03:56AM -26.7114 149.6112 103° East 445 512 34,200 -1,620 Descending Aus ATC (RADAR)
03:56AM -26.7267 149.6901 102° East 441 507 33,300 -1,680 Descending Aus ATC (RADAR)
03:57AM -26.7531 149.8215 103° East 424 488 31,600 -1,740 Descending Aus ATC (RADAR)
03:58AM -26.7638 149.8749 103° East 419 482 30,900 -1,560 Descending Aus ATC (RADAR)
03:58AM -26.7741 149.9286 102° East 418 481 30,300 -1,680 Descending Aus ATC (RADAR)
03:59AM -26.7968 150.0457 102° East 413 475 28,700 -1,680 Descending Aus ATC (RADAR)
04:00AM -26.8112 150.1197 102° East 412 474 27,800 -1,380 Descending Aus ATC (RADAR)
04:00AM -26.8334 150.2325 102° East 400 460 26,700 -1,200 Descending Aus ATC (RADAR)
04:01AM -26.8393 150.2625 102° East 394 453 26,400 -1,080 Descending Aus ATC (RADAR)
04:01AM -26.8528 150.3311 102° East 381 438 25,800 -900 Descending Aus ATC (RADAR)
04:03AM -26.8789 150.4653 102° East 373 429 24,900 -660 Descending Aus ATC (RADAR)
04:03AM -26.8842 150.4938 102° East 371 427 24,900 -900 Level Aus ATC (RADAR)
04:03AM -26.8972 150.5615 102° East 376 433 24,200 -960 Descending Aus ATC (RADAR)
04:04AM -26.9177 150.6680 102° East 376 433 23,500 -780 Descending Aus ATC (RADAR)
04:05AM -26.9300 150.7353 102° East 374 430 23,100 -720 Descending Aus ATC (RADAR)
04:06AM -26.9488 150.8282 103° East 359 413 22,500 -720 Descending Aus ATC (RADAR)
04:06AM -26.9810 150.8808 125° Southeast 347 399 22,100 -780 Descending Aus ATC (RADAR)
04:07AM -27.0503 150.9369 144° Southeast 333 383 21,400 -720 Descending Aus ATC (RADAR)
04:08AM -27.0864 150.9685 142° Southeast 326 375 21,100 -720 Descending Aus ATC (RADAR)
04:08AM -27.1047 150.9839 143° Southeast 325 374 20,900 -720 Descending Aus ATC (RADAR)
04:08AM -27.1483 151.0195 144° Southeast 327 376 20,500 -720 Descending Aus ATC (RADAR)
04:09AM -27.2122 151.0738 143° Southeast 314 361 19,900 -720 Descending Aus ATC (RADAR)
04:10AM -27.2530 151.1093 142° Southeast 313 360 19,500 -600 Descending Aus ATC (RADAR)
04:11AM -27.3358 151.1790 143° Southeast 314 361 18,900 -540 Descending Aus ATC (RADAR)
04:11AM -27.3478 151.1888 144° Southeast 314 361 18,800 -360 Descending Aus ATC (RADAR)
04:12AM -27.3987 151.2335 144° Southeast 319 367 18,600 -360 Descending FlightAware ADS-B
04:12AM -27.4093 151.2476 131° Southeast 322 371 18,500 -600 Descending FlightAware ADS-B
04:13AM -27.4314 151.2932 119° Southeast 318 366 18,200 -600 Descending FlightAware ADS-B
04:13AM -27.4398 151.3124 116° Southeast 318 366 18,100 -480 Descending FlightAware ADS-B
04:14AM -27.4645 151.3682 117° Southeast 315 362 17,800 -540 Descending FlightAware ADS-B
04:14AM -27.4707 151.3823 117° Southeast 317 365 17,700 -600 Descending FlightAware ADS-B (EKCH / CPH)
04:14AM -27.4839 151.4120 117° Southeast 315 362 17,500 -480 Descending FlightAware ADS-B (EKCH / CPH)
04:14AM -27.4853 151.4151 117° Southeast 314 361 17,400 -300 Descending FlightAware ADS-B (EKCH / CPH)
04:15AM -27.5168 151.4851 117° Southeast 315 362 17,300 -300 Descending FlightAware ADS-B
04:15AM -27.5217 151.5007 109° East 315 362 17,200 -420 Descending FlightAware ADS-B
04:15AM -27.5260 151.5334 98° East 318 366 17,100 -600 Descending FlightAware ADS-B
04:16AM -27.5283 151.5830 93° East 312 359 16,700 -600 Descending FlightAware ADS-B
04:16AM -27.5310 151.6307 94° East 310 357 16,500 -540 Descending FlightAware ADS-B (EKCH / CPH)
04:17AM -27.5338 151.6787 94° East 306 352 16,200 -540 Descending FlightAware ADS-B (EKCH / CPH)
04:17AM -27.5365 151.7268 94° East 306 352 16,000 -420 Descending FlightAware ADS-B (EKCH / CPH)
04:18AM -27.5391 151.7741 94° East 303 349 15,800 -420 Descending FlightAware ADS-B (EKCH / CPH)
04:18AM -27.5419 151.8227 94° East 305 351 15,600 -300 Descending FlightAware ADS-B (EKCH / CPH)
04:19AM -27.5446 151.8702 94° East 306 352 15,500 -300 Descending FlightAware ADS-B (EKCH / CPH)
04:19AM -27.5473 151.9179 94° East 305 351 15,300 -540 Descending FlightAware ADS-B (EKCH / CPH)
04:20AM -27.5490 151.9469 94° East 306 352 15,100 -540 Descending FlightAware ADS-B (EKCH / CPH)
04:20AM -27.5513 151.9907 93° East 304 350 14,900 -300 Descending FlightAware ADS-B (EKCH / CPH)
04:21AM -27.5541 152.0426 93° East 303 349 14,800 -420 Descending FlightAware ADS-B
04:21AM -27.5568 152.0905 94° East 299 344 14,500 -420 Descending FlightAware ADS-B (EKCH / CPH)
04:22AM -27.5595 152.1376 94° East 302 348 14,400 -300 Descending FlightAware ADS-B (EKCH / CPH)
04:22AM -27.5628 152.1995 93° East 297 342 14,200 -360 Descending FlightAware ADS-B (EKCH / CPH)
04:23AM -27.5654 152.2480 93° East 293 337 14,000 -180 Descending Aus ATC (RADAR)
04:23AM -27.5661 152.2615 93° East 298 343 14,100 -180 Climbing FlightAware ADS-B (EKCH / CPH)
04:24AM -27.5694 152.3216 93° East 298 343 13,900 -540 Descending FlightAware ADS-B (EKCH / CPH)
04:24AM -27.5720 152.3696 94° East 296 341 13,500 -900 Descending FlightAware ADS-B (EKCH / CPH)
04:24AM -27.5729 152.3874 94° East 295 339 13,300 -1,080 Descending FlightAware ADS-B
04:25AM -27.5758 152.4257 95° East 289 333 12,800 -1,500 Descending FlightAware ADS-B (EKCH / CPH)
04:25AM -27.5865 152.4734 104° East 296 341 11,900 -2,040 Descending FlightAware ADS-B (EKCH / CPH)
04:26AM -27.5980 152.5192 106° East 314 361 10,800 -1,920 Descending FlightAware ADS-B (EKCH / CPH)
04:26AM -27.6098 152.5665 106° East 311 358 10,000 -1,440 Descending FlightAware ADS-B (EKCH / CPH)
04:27AM -27.6177 152.5981 106° East 309 356 9,600 -1,260 Descending FlightAware ADS-B (EKCH / CPH)
04:27AM -27.6253 152.6288 106° East 306 352 9,200 -1,380 Descending FlightAware ADS-B (EKCH / CPH)
04:27AM -27.6329 152.6596 106° East 306 352 8,700 -1,500 Descending FlightAware ADS-B (EKCH / CPH)
04:28AM -27.6405 152.6899 106° East 305 351 8,200 -1,560 Descending FlightAware ADS-B (EKCH / CPH)
04:28AM -27.6432 152.7008 105° East 304 350 8,000 -1,620 Descending FlightAware ADS-B
04:28AM -27.6458 152.7207 98° East 303 349 7,700 -1,440 Descending FlightAware ADS-B (EKCH / CPH)
04:28AM -27.6418 152.7524 82° East 302 348 7,200 -1,320 Descending FlightAware ADS-B (EKCH / CPH)
04:29AM -27.6345 152.7832 75° East 300 345 6,800 -1,560 Descending FlightAware ADS-B (EKCH / CPH)
04:29AM -27.6270 152.8127 74° East 301 346 6,200 -1,740 Descending FlightAware ADS-B (EKCH / CPH)
04:29AM -27.6199 152.8413 74° East 297 342 5,700 -1,320 Descending FlightAware ADS-B (EKCH / CPH)
04:30AM -27.6124 152.8711 74° East 292 336 5,300 -900 Descending FlightAware ADS-B (EKCH / CPH)
04:30AM -27.6050 152.9009 74° East 275 316 5,100 -660 Descending FlightAware ADS-B (EKCH / CPH)
04:30AM -27.5985 152.9275 74° East 260 299 4,900 -300 Descending FlightAware ADS-B (EKCH / CPH)
04:31AM -27.5923 152.9525 75° East 240 276 4,900 -300 Level FlightAware ADS-B (EKCH / CPH)
04:31AM -27.5866 152.9753 74° East 224 258 4,700 -780 Descending FlightAware ADS-B (EKCH / CPH)
04:31AM -27.5809 152.9975 74° East 216 249 4,400 -1,200 Descending FlightAware ADS-B (EKCH / CPH)
04:32AM -27.5734 153.0182 68° East 211 243 3,900 -1,380 Descending FlightAware ADS-B (EKCH / CPH)
04:32AM -27.5665 153.0248 41° Northeast 205 236 3,700 -900 Descending FlightAware ADS-B (EKCH / CPH)
04:32AM -27.5582 153.0298 28° Northeast 201 231 3,600 -1,080 Descending FlightAware ADS-B (EKCH / CPH)
04:32AM -27.5425 153.0383 26° Northeast 196 226 3,200 -1,200 Descending FlightAware ADS-B (EKCH / CPH)
04:33AM -27.5250 153.0479 26° Northeast 195 224 2,800 -1,200 Descending FlightAware ADS-B (EKCH / CPH)
04:33AM -27.5094 153.0571 27° Northeast 190 219 2,400 -1,080 Descending FlightAware ADS-B (EKCH / CPH)
04:33AM -27.4950 153.0653 27° Northeast 178 205 2,100 -1,080 Descending FlightAware ADS-B (EKCH / CPH)
04:34AM -27.4805 153.0738 27° Northeast 162 186 1,700 -900 Descending FlightAware ADS-B (EKCH / CPH)
04:34AM -27.4680 153.0810 27° Northeast 146 168 1,500 -780 Descending FlightAware ADS-B (EKCH / CPH)
04:34AM -27.4567 153.0874 27° Northeast 139 160 1,200 -780 Descending FlightAware ADS-B (EKCH / CPH)
04:35AM -27.4450 153.0941 27° Northeast 135 155 1,000 -600 Descending FlightAware ADS-B (EKCH / CPH)
04:35AM -27.4336 153.1005 27° Northeast 137 158 800 -600 Descending FlightAware ADS-B (EKCH / CPH)
04:35AM -27.4224 153.1070 27° Northeast 141 162 600 -780 Descending FlightAware ADS-B (EKCH / CPH)
04:36AM -27.4110 153.1135 27° Northeast 141 162 300 -780 Descending FlightAware ADS-B (EKCH / CPH)
04:36AM -27.3994 153.1201 27° Northeast 137 158 100 -600 Descending FlightAware ADS-B (EKCH / CPH)